sensor_id;sensor_type;location;lat;lon;timestamp;pressure;altitude;pressure_sealevel;temperature;humidity
929;BME280;451;47.988;7.842;2023-05-20T00:07:54;98460.44;;;12.79;94.55
929;BME280;451;47.988;7.842;2023-05-20T00:16:57;98499.38;;;12.77;97.28
929;BME280;451;47.988;7.842;2023-05-20T00:26:01;98507.72;;;12.96;95.42
929;BME280;451;47.988;7.842;2023-05-20T00:35:05;98471.59;;;12.96;94.20
929;BME280;451;47.988;7.842;2023-05-20T00:44:10;98508.63;;;13.17;94.40
929;BME280;451;47.988;7.842;2023-05-20T00:53:15;98477.34;;;13.36;93.91
929;BME280;451;47.988;7.842;2023-05-20T01:02:21;98490.63;;;13.63;91.88
929;BME280;451;47.988;7.842;2023-05-20T01:11:30;98438.13;;;13.54;91.06
929;BME280;451;47.988;7.842;2023-05-20T01:20:38;98488.38;;;14.09;89.27
929;BME280;451;47.988;7.842;2023-05-20T01:29:42;98474.47;;;13.73;90.44
929;BME280;451;47.988;7.842;2023-05-20T01:38:47;98488.81;;;13.85;91.16
929;BME280;451;47.988;7.842;2023-05-20T01:47:52;98452.75;;;13.56;92.71
929;BME280;451;47.988;7.842;2023-05-20T01:56:55;98467.47;;;13.65;93.91
929;BME280;451;47.988;7.842;2023-05-20T02:06:00;98450.88;;;13.50;94.62
929;BME280;451;47.988;7.842;2023-05-20T02:15:04;98455.34;;;13.28;96.29
929;BME280;451;47.988;7.842;2023-05-20T02:24:09;98449.63;;;13.67;95.64
929;BME280;451;47.988;7.842;2023-05-20T02:33:12;98428.56;;;12.81;100.00
929;BME280;451;47.988;7.842;2023-05-20T02:42:17;98439.19;;;13.17;97.62
929;BME280;451;47.988;7.842;2023-05-20T02:51:20;98439.63;;;13.42;96.13
929;BME280;451;47.988;7.842;2023-05-20T03:00:24;98385.00;;;12.85;97.54
929;BME280;451;47.988;7.842;2023-05-20T03:09:29;98387.50;;;12.93;97.76
929;BME280;451;47.988;7.842;2023-05-20T03:18:34;98428.13;;;12.92;100.00
929;BME280;451;47.988;7.842;2023-05-20T03:27:37;98296.06;;;12.07;100.00
929;BME280;451;47.988;7.842;2023-05-20T03:36:42;98372.66;;;12.20;100.00
929;BME280;451;47.988;7.842;2023-05-20T03:45:46;98414.72;;;12.58;100.00
929;BME280;451;47.988;7.842;2023-05-20T03:54:50;98386.09;;;12.40;100.00
929;BME280;451;47.988;7.842;2023-05-20T04:03:54;98412.53;;;12.46;100.00
929;BME280;451;47.988;7.842;2023-05-20T04:12:59;98362.38;;;12.25;100.00
929;BME280;451;47.988;7.842;2023-05-20T04:22:03;98362.31;;;11.89;100.00
929;BME280;451;47.988;7.842;2023-05-20T04:31:08;98420.00;;;12.28;100.00
929;BME280;451;47.988;7.842;2023-05-20T04:40:13;98424.09;;;12.16;100.00
929;BME280;451;47.988;7.842;2023-05-20T04:49:18;98413.25;;;11.82;100.00
929;BME280;451;47.988;7.842;2023-05-20T04:58:22;98418.09;;;12.37;100.00
929;BME280;451;47.988;7.842;2023-05-20T05:07:27;98425.75;;;12.97;100.00
929;BME280;451;47.988;7.842;2023-05-20T05:16:30;98396.97;;;13.02;100.00
929;BME280;451;47.988;7.842;2023-05-20T05:25:35;98396.53;;;13.90;97.79
929;BME280;451;47.988;7.842;2023-05-20T05:34:38;98353.34;;;14.45;92.64
929;BME280;451;47.988;7.842;2023-05-20T05:43:43;98392.22;;;15.19;87.43
929;BME280;451;47.988;7.842;2023-05-20T05:52:46;98391.72;;;14.82;89.41
929;BME280;451;47.988;7.842;2023-05-20T06:01:52;98352.53;;;15.91;85.06
929;BME280;451;47.988;7.842;2023-05-20T06:10:56;98338.63;;;16.02;79.01
929;BME280;451;47.988;7.842;2023-05-20T06:20:00;98374.19;;;15.55;85.49
929;BME280;451;47.988;7.842;2023-05-20T06:29:04;98377.22;;;15.59;85.30
929;BME280;451;47.988;7.842;2023-05-20T06:38:11;98351.53;;;15.66;84.48
929;BME280;451;47.988;7.842;2023-05-20T06:47:16;98349.91;;;15.65;86.46
929;BME280;451;47.988;7.842;2023-05-20T06:56:23;98346.50;;;16.29;83.70
929;BME280;451;47.988;7.842;2023-05-20T07:05:28;98345.22;;;16.89;79.26
929;BME280;451;47.988;7.842;2023-05-20T07:14:34;98341.25;;;17.05;77.34
929;BME280;451;47.988;7.842;2023-05-20T07:23:37;98230.84;;;16.52;76.61
929;BME280;451;47.988;7.842;2023-05-20T07:32:42;98315.69;;;17.35;77.11
929;BME280;451;47.988;7.842;2023-05-20T07:41:46;98179.75;;;16.64;75.64
929;BME280;451;47.988;7.842;2023-05-20T07:50:53;98289.75;;;17.98;74.14
929;BME280;451;47.988;7.842;2023-05-20T07:59:58;98290.09;;;18.02;74.21
929;BME280;451;47.988;7.842;2023-05-20T08:09:04;98238.97;;;17.82;72.68
929;BME280;451;47.988;7.842;2023-05-20T08:18:10;98251.41;;;18.36;72.43
929;BME280;451;47.988;7.842;2023-05-20T08:27:15;98258.75;;;18.22;73.36
929;BME280;451;47.988;7.842;2023-05-20T08:36:18;98247.03;;;18.41;71.16
929;BME280;451;47.988;7.842;2023-05-20T08:45:24;98267.22;;;18.31;73.19
929;BME280;451;47.988;7.842;2023-05-20T08:54:42;98281.53;;;18.66;71.43
929;BME280;451;47.988;7.842;2023-05-20T09:03:46;98295.91;;;18.47;73.32
929;BME280;451;47.988;7.842;2023-05-20T09:12:49;98291.50;;;18.23;74.21
929;BME280;451;47.988;7.842;2023-05-20T09:21:54;98285.13;;;18.60;71.24
929;BME280;451;47.988;7.842;2023-05-20T09:30:57;98283.66;;;18.76;70.63
929;BME280;451;47.988;7.842;2023-05-20T09:40:03;98289.91;;;18.81;69.77
929;BME280;451;47.988;7.842;2023-05-20T09:49:10;98268.50;;;19.64;66.64
929;BME280;451;47.988;7.842;2023-05-20T09:58:17;98247.94;;;20.28;64.65
929;BME280;451;47.988;7.842;2023-05-20T10:07:32;98256.31;;;20.20;62.67
929;BME280;451;47.988;7.842;2023-05-20T10:16:49;98180.47;;;20.94;58.80
929;BME280;451;47.988;7.842;2023-05-20T10:25:54;98208.84;;;20.50;59.41
929;BME280;451;47.988;7.842;2023-05-20T10:35:03;98245.13;;;21.25;57.46
929;BME280;451;47.988;7.842;2023-05-20T10:44:07;98240.28;;;21.77;57.40
929;BME280;451;47.988;7.842;2023-05-20T10:53:13;98228.97;;;23.21;53.30
929;BME280;451;47.988;7.842;2023-05-20T11:02:17;98154.53;;;21.67;54.71
929;BME280;451;47.988;7.842;2023-05-20T11:11:22;98225.09;;;22.48;54.25
929;BME280;451;47.988;7.842;2023-05-20T11:20:25;98225.69;;;20.96;57.63
929;BME280;451;47.988;7.842;2023-05-20T11:29:30;98188.88;;;22.19;54.90
929;BME280;451;47.988;7.842;2023-05-20T11:38:34;98158.69;;;22.55;54.49
929;BME280;451;47.988;7.842;2023-05-20T11:47:38;98121.22;;;23.39;52.10
929;BME280;451;47.988;7.842;2023-05-20T11:56:43;98173.72;;;24.75;49.32
929;BME280;451;47.988;7.842;2023-05-20T12:05:47;98019.50;;;22.06;51.89
929;BME280;451;47.988;7.842;2023-05-20T12:14:51;98072.75;;;22.30;53.72
929;BME280;451;47.988;7.842;2023-05-20T12:23:55;98119.44;;;22.12;55.15
929;BME280;451;47.988;7.842;2023-05-20T12:32:58;98139.44;;;23.32;54.45
929;BME280;451;47.988;7.842;2023-05-20T12:42:04;98140.44;;;22.52;54.58
929;BME280;451;47.988;7.842;2023-05-20T12:51:07;98113.25;;;22.70;54.03
929;BME280;451;47.988;7.842;2023-05-20T13:00:13;98117.50;;;23.45;52.92
929;BME280;451;47.988;7.842;2023-05-20T13:09:16;98108.25;;;23.73;52.16
929;BME280;451;47.988;7.842;2023-05-20T13:18:20;98121.09;;;22.77;53.69
929;BME280;451;47.988;7.842;2023-05-20T13:27:23;98097.69;;;23.51;52.89
929;BME280;451;47.988;7.842;2023-05-20T13:36:28;98088.50;;;24.35;50.88
929;BME280;451;47.988;7.842;2023-05-20T13:45:31;98089.22;;;23.80;52.28
929;BME280;451;47.988;7.842;2023-05-20T13:54:36;98070.44;;;25.06;50.03
929;BME280;451;47.988;7.842;2023-05-20T14:03:39;98061.09;;;24.23;50.42
929;BME280;451;47.988;7.842;2023-05-20T14:12:44;98055.94;;;24.82;50.56
929;BME280;451;47.988;7.842;2023-05-20T14:21:48;98048.81;;;23.49;52.46
929;BME280;451;47.988;7.842;2023-05-20T14:30:53;98053.66;;;25.35;49.36
929;BME280;451;47.988;7.842;2023-05-20T14:39:56;98051.59;;;25.16;48.56
929;BME280;451;47.988;7.842;2023-05-20T14:49:00;98060.81;;;24.90;48.26
929;BME280;451;47.988;7.842;2023-05-20T14:58:03;98063.84;;;25.48;48.32
929;BME280;451;47.988;7.842;2023-05-20T15:07:08;98073.69;;;24.78;50.40
929;BME280;451;47.988;7.842;2023-05-20T15:16:11;98029.75;;;22.88;53.29
929;BME280;451;47.988;7.842;2023-05-20T15:25:15;97918.94;;;22.21;53.95
929;BME280;451;47.988;7.842;2023-05-20T15:34:18;98024.66;;;22.87;54.64
929;BME280;451;47.988;7.842;2023-05-20T15:43:23;98081.22;;;23.32;54.57
929;BME280;451;47.988;7.842;2023-05-20T15:52:26;98059.13;;;23.15;54.98
929;BME280;451;47.988;7.842;2023-05-20T16:01:30;98056.59;;;22.93;58.20
929;BME280;451;47.988;7.842;2023-05-20T16:10:34;98072.31;;;23.22;56.90
929;BME280;451;47.988;7.842;2023-05-20T16:19:38;98027.41;;;23.59;58.61
929;BME280;451;47.988;7.842;2023-05-20T16:28:41;98072.13;;;24.51;53.18
929;BME280;451;47.988;7.842;2023-05-20T16:37:46;98044.22;;;23.40;56.75
929;BME280;451;47.988;7.842;2023-05-20T16:46:49;98062.63;;;23.83;55.81
929;BME280;451;47.988;7.842;2023-05-20T16:55:53;98070.41;;;23.80;55.30
929;BME280;451;47.988;7.842;2023-05-20T17:04:56;98068.03;;;23.31;55.35
929;BME280;451;47.988;7.842;2023-05-20T17:14:01;97878.97;;;22.09;55.23
929;BME280;451;47.988;7.842;2023-05-20T17:23:07;98044.78;;;22.89;56.65
929;BME280;451;47.988;7.842;2023-05-20T17:32:11;98038.56;;;22.42;57.48
929;BME280;451;47.988;7.842;2023-05-20T17:41:15;98082.03;;;22.86;64.35
929;BME280;451;47.988;7.842;2023-05-20T17:50:20;98083.28;;;22.09;65.69
929;BME280;451;47.988;7.842;2023-05-20T17:59:23;98102.09;;;22.20;68.90
929;BME280;451;47.988;7.842;2023-05-20T18:08:27;98112.00;;;21.70;70.72
929;BME280;451;47.988;7.842;2023-05-20T18:17:30;98099.63;;;21.43;70.65
929;BME280;451;47.988;7.842;2023-05-20T18:26:35;98112.19;;;20.87;73.67
929;BME280;451;47.988;7.842;2023-05-20T18:35:38;98098.78;;;20.82;75.02
929;BME280;451;47.988;7.842;2023-05-20T18:44:42;98109.38;;;20.77;75.49
929;BME280;451;47.988;7.842;2023-05-20T18:53:45;98104.53;;;20.74;75.85
929;BME280;451;47.988;7.842;2023-05-20T19:02:49;98112.78;;;20.56;78.20
929;BME280;451;47.988;7.842;2023-05-20T19:11:53;98108.00;;;20.91;77.25
929;BME280;451;47.988;7.842;2023-05-20T19:21:00;98081.47;;;20.34;81.88
929;BME280;451;47.988;7.842;2023-05-20T19:30:04;98106.41;;;19.83;85.19
929;BME280;451;47.988;7.842;2023-05-20T19:39:09;98105.75;;;19.48;84.91
929;BME280;451;47.988;7.842;2023-05-20T19:48:12;98111.22;;;18.94;88.50
929;BME280;451;47.988;7.842;2023-05-20T19:57:16;98076.50;;;18.66;90.89
929;BME280;451;47.988;7.842;2023-05-20T20:06:19;98112.25;;;18.70;92.71
929;BME280;451;47.988;7.842;2023-05-20T20:15:24;98099.44;;;18.26;95.16
929;BME280;451;47.988;7.842;2023-05-20T20:24:27;98116.22;;;18.26;95.72
929;BME280;451;47.988;7.842;2023-05-20T20:33:32;98111.84;;;18.43;95.48
929;BME280;451;47.988;7.842;2023-05-20T20:42:35;98111.59;;;17.92;98.02
929;BME280;451;47.988;7.842;2023-05-20T20:51:42;98100.59;;;17.88;98.48
929;BME280;451;47.988;7.842;2023-05-20T21:00:45;98081.28;;;17.63;100.00
929;BME280;451;47.988;7.842;2023-05-20T21:09:50;98089.78;;;17.53;100.00
929;BME280;451;47.988;7.842;2023-05-20T21:18:55;98087.97;;;17.36;100.00
929;BME280;451;47.988;7.842;2023-05-20T21:28:00;98081.75;;;17.42;100.00
929;BME280;451;47.988;7.842;2023-05-20T21:37:03;98034.09;;;16.92;100.00
929;BME280;451;47.988;7.842;2023-05-20T21:46:07;98065.19;;;17.58;100.00
929;BME280;451;47.988;7.842;2023-05-20T21:55:11;98045.72;;;17.46;100.00
929;BME280;451;47.988;7.842;2023-05-20T22:04:15;98048.69;;;17.01;100.00
929;BME280;451;47.988;7.842;2023-05-20T22:13:19;98053.69;;;17.64;100.00
929;BME280;451;47.988;7.842;2023-05-20T22:22:28;98064.34;;;17.27;100.00
929;BME280;451;47.988;7.842;2023-05-20T22:31:32;98049.06;;;17.71;100.00
929;BME280;451;47.988;7.842;2023-05-20T22:40:37;98048.31;;;17.82;98.57
929;BME280;451;47.988;7.842;2023-05-20T22:49:40;98029.06;;;17.68;100.00
929;BME280;451;47.988;7.842;2023-05-20T22:58:45;98041.06;;;18.01;97.05
929;BME280;451;47.988;7.842;2023-05-20T23:07:48;98039.88;;;17.85;97.78
929;BME280;451;47.988;7.842;2023-05-20T23:16:55;98043.91;;;17.58;100.00
929;BME280;451;47.988;7.842;2023-05-20T23:25:58;98036.63;;;17.53;100.00
929;BME280;451;47.988;7.842;2023-05-20T23:35:04;98029.75;;;17.46;100.00
929;BME280;451;47.988;7.842;2023-05-20T23:44:08;98019.25;;;17.51;100.00
929;BME280;451;47.988;7.842;2023-05-20T23:53:12;98013.00;;;17.75;98.68
